You are not logged in, Click here to log in
ICAO: RCSS Country: 臺北市松山區敦化北路340-9號
Latitude: 25.0676 Longitude: 121.553
Total Arrivals: 294 Total Departures: 261
Latest Arrival: B7B802 (RJFU-RCSS)Arthur. Kung Latest Departure: BR2796 (RCSS-ZSSS)Arthur. Kung
Scenery:
METAR : RCSS 200600Z 28005KT 8000 -RA FEW010 BKN020 BKN035 24/22 Q1005 NOSIG RMK A2969

臺北松山機場TSA